F.r. Bigelow — WDB8153 — position and weather

sailwx.info

Track history (hours):
 
Tides and Currents Weather Stations Pressure Air Temp Water Temp Dewpoint Dewpoint Depression Visibility Wind Speed Wind Dir Waves Ship Positions

F.r. Bigelow

Owner: INGRAM BARGE COMPANY, Nashville, TN. More information available from US FCC via Universal Licensing System and Coast Guard Vessel Documentation Center.

Last reported at 2016-Aug-07 11:04 UTC. Time now 2016-Aug-25 07:59 UTC.
Position N 29°60' W 090°25'.
Warning: this ship's position is 17 days out of date.

Length 46 m; draft 3.5 m.

Type: Tow > 200 m length. MMSI: 366953890.

Date/timePositionNaut miles runAvg speedWind from/ knotsBaromVisibWave heightAir tempDewpointWater temp
2016-Aug-07 11:04N 29°60' W 090°25'  
2016-Aug-02 08:30N 29°56' W 090°11'3 2.8
2016-Aug-02 07:33N 29°56' W 090°08'3 3.2
2016-Aug-02 06:34N 29°55' W 090°05'8 4.0
2016-Aug-02 04:33N 29°55' W 089°56'0 0.2
2016-Aug-02 03:15N 29°55' W 089°55'1 1.5
2016-Aug-02 02:32N 29°54' W 089°55'2 2.5
2016-Aug-02 01:33N 29°53' W 089°57'3 3.4
2016-Aug-02 00:33N 29°50' W 089°59'3 0.6
2016-Aug-01 20:25N 29°48' W 090°00'2 0.2
2016-Aug-01 04:19N 29°50' W 089°60'6 3.3
2016-Aug-01 02:33N 29°55' W 089°57'6 5.5
2016-Aug-01 01:34N 29°56' W 090°03'4 4.3
2016-Aug-01 00:33N 29°57' W 090°08'4 0.1
2016-Jul-30 08:23N 29°56' W 090°13'4 4.4
2016-Jul-30 07:33N 29°57' W 090°09'4 3.7
2016-Jul-30 06:33N 29°55' W 090°06'4 4.1
2016-Jul-30 05:34N 29°58' W 090°03'5 4.7
2016-Jul-30 04:33N 29°55' W 089°58'2 1.1
2016-Jul-30 02:32N 29°55' W 089°55'0 0.1
2016-Jul-30 01:31N 29°55' W 089°55'0 0.1
2016-Jul-30 00:14N 29°55' W 089°55'0 0.0
2016-Jul-29 22:18N 29°55' W 089°55'0 0.0
2016-Jul-29 21:29N 29°55' W 089°55'0 0.0
2016-Jul-29 19:32N 29°55' W 089°55'0 0.0
2016-Jul-29 18:33N 29°55' W 089°55'0 0.0
2016-Jul-29 17:13N 29°55' W 089°55'0 0.1
2016-Jul-29 16:33N 29°55' W 089°55'0 0.1
2016-Jul-29 15:33N 29°55' W 089°56'0 0.0
2016-Jul-29 14:08N 29°55' W 089°56'0 0.0
2016-Jul-29 13:27N 29°55' W 089°56'0 0.0
2016-Jul-29 12:03N 29°55' W 089°56'0 0.0
2016-Jul-29 11:33N 29°55' W 089°56'0 0.2
2016-Jul-29 10:33N 29°55' W 089°56'3 2.9
2016-Jul-29 09:33N 29°52' W 089°56'4 4.3
2016-Jul-29 08:33N 29°49' W 089°60'2 1.0
2016-Jul-29 06:25N 29°48' W 090°01'1 0.2
2016-Jul-28 23:23N 29°49' W 090°00'6 5.8
2016-Jul-28 22:16N 29°53' W 089°54'5 6.7
2016-Jul-28 21:34N 29°56' W 089°59'5 4.6
2016-Jul-28 20:33N 29°55' W 090°04'5 4.8
2016-Jul-28 19:33N 29°57' W 090°09'  
Track history (hours):
 
Tides and Currents Weather Stations Pressure Air Temp Water Temp Dewpoint Dewpoint Depression Visibility Wind Speed Wind Dir Waves Ship Positions

F.r. Bigelow

Owner: INGRAM BARGE COMPANY, Nashville, TN. More information available from US FCC via Universal Licensing System and Coast Guard Vessel Documentation Center.

Last reported at 2016-Aug-07 11:04 UTC. Time now 2016-Aug-25 07:59 UTC.
Position N 29°60' W 090°25'.
Warning: this ship's position is 17 days out of date.

Length 46 m; draft 3.5 m.

Type: Tow > 200 m length. MMSI: 366953890.

Date/timePositionNaut miles runAvg speedWind from/ knotsBaromVisibWave heightAir tempDewpointWater temp
2016-Aug-07 11:04N 29°60' W 090°25'  
2016-Aug-02 08:30N 29°56' W 090°11'3 2.8
2016-Aug-02 07:33N 29°56' W 090°08'3 3.2
2016-Aug-02 06:34N 29°55' W 090°05'8 4.0
2016-Aug-02 04:33N 29°55' W 089°56'0 0.2
2016-Aug-02 03:15N 29°55' W 089°55'1 1.5
2016-Aug-02 02:32N 29°54' W 089°55'2 2.5
2016-Aug-02 01:33N 29°53' W 089°57'3 3.4
2016-Aug-02 00:33N 29°50' W 089°59'3 0.6
2016-Aug-01 20:25N 29°48' W 090°00'2 0.2
2016-Aug-01 04:19N 29°50' W 089°60'6 3.3
2016-Aug-01 02:33N 29°55' W 089°57'6 5.5
2016-Aug-01 01:34N 29°56' W 090°03'4 4.3
2016-Aug-01 00:33N 29°57' W 090°08'4 0.1
2016-Jul-30 08:23N 29°56' W 090°13'4 4.4
2016-Jul-30 07:33N 29°57' W 090°09'4 3.7
2016-Jul-30 06:33N 29°55' W 090°06'4 4.1
2016-Jul-30 05:34N 29°58' W 090°03'5 4.7
2016-Jul-30 04:33N 29°55' W 089°58'2 1.1
2016-Jul-30 02:32N 29°55' W 089°55'0 0.1
2016-Jul-30 01:31N 29°55' W 089°55'0 0.1
2016-Jul-30 00:14N 29°55' W 089°55'0 0.0
2016-Jul-29 22:18N 29°55' W 089°55'0 0.0
2016-Jul-29 21:29N 29°55' W 089°55'0 0.0
2016-Jul-29 19:32N 29°55' W 089°55'0 0.0
2016-Jul-29 18:33N 29°55' W 089°55'0 0.0
2016-Jul-29 17:13N 29°55' W 089°55'0 0.1
2016-Jul-29 16:33N 29°55' W 089°55'0 0.1
2016-Jul-29 15:33N 29°55' W 089°56'0 0.0
2016-Jul-29 14:08N 29°55' W 089°56'0 0.0
2016-Jul-29 13:27N 29°55' W 089°56'0 0.0
2016-Jul-29 12:03N 29°55' W 089°56'0 0.0
2016-Jul-29 11:33N 29°55' W 089°56'0 0.2
2016-Jul-29 10:33N 29°55' W 089°56'3 2.9
2016-Jul-29 09:33N 29°52' W 089°56'4 4.3
2016-Jul-29 08:33N 29°49' W 089°60'2 1.0
2016-Jul-29 06:25N 29°48' W 090°01'1 0.2
2016-Jul-28 23:23N 29°49' W 090°00'6 5.8
2016-Jul-28 22:16N 29°53' W 089°54'5 6.7
2016-Jul-28 21:34N 29°56' W 089°59'5 4.6
2016-Jul-28 20:33N 29°55' W 090°04'5 4.8
2016-Jul-28 19:33N 29°57' W 090°09'  

Dump ship's entire track history